createdAt,value
2018-08-24T00:01:06.130Z,95479.88
2018-08-24T00:03:36.015Z,95474.27
2018-08-24T00:06:08.942Z,95473.02
2018-08-24T00:08:38.800Z,95479.39
2018-08-24T00:11:08.213Z,95479.52
2018-08-24T00:13:38.250Z,95480.47
2018-08-24T00:16:07.699Z,95486.04
2018-08-24T00:18:39.985Z,95480.36
2018-08-24T00:21:09.554Z,95475.95
2018-08-24T00:23:39.255Z,95475.75
2018-08-24T00:26:08.632Z,95476.27
2018-08-24T00:28:39.140Z,95478.24
2018-08-24T00:31:09.195Z,95477.91
2018-08-24T00:33:39.003Z,95477.61
2018-08-24T00:36:08.937Z,95473.20
2018-08-24T00:38:38.681Z,95467.33
2018-08-24T00:41:08.105Z,95462.45
2018-08-24T00:44:08.125Z,95460.63
2018-08-24T00:46:37.874Z,95456.77
2018-08-24T00:49:08.718Z,95456.20
2018-08-24T00:51:38.102Z,95455.41
2018-08-24T00:54:07.876Z,95449.39
2018-08-24T00:56:37.313Z,95447.66
2018-08-24T00:59:07.275Z,95453.91
2018-08-24T01:01:36.695Z,95451.89
2018-08-24T01:04:07.020Z,95452.58
2018-08-24T01:06:37.832Z,95452.23
2018-08-24T01:09:10.246Z,95451.00
2018-08-24T01:11:45.304Z,95449.52
2018-08-24T01:14:14.703Z,95450.08
2018-08-24T01:16:50.273Z,95449.63
2018-08-24T01:19:20.647Z,95449.06
2018-08-24T01:21:50.100Z,95448.05
2018-08-24T01:24:19.597Z,95441.23
2018-08-24T01:27:07.818Z,95447.25
2018-08-24T01:29:38.505Z,95444.88
2018-08-24T01:32:08.231Z,95435.00
2018-08-24T01:34:38.599Z,95438.39
2018-08-24T01:37:07.963Z,95438.62
2018-08-24T01:39:37.354Z,95436.13
2018-08-24T01:42:07.461Z,95439.98
2018-08-24T01:44:37.365Z,95439.07
2018-08-24T01:47:07.753Z,95442.14
2018-08-24T01:49:37.156Z,95433.74
2018-08-24T01:52:06.638Z,95437.03
2018-08-24T01:54:39.880Z,95435.45
2018-08-24T01:57:09.289Z,95431.70
2018-08-24T01:59:38.690Z,95432.05
2018-08-24T02:02:10.365Z,95426.19
2018-08-24T02:04:40.395Z,95429.89
2018-08-24T02:07:09.802Z,95436.51
2018-08-24T02:09:39.833Z,95437.64
2018-08-24T02:12:15.183Z,95440.61
2018-08-24T02:14:45.786Z,95441.78
2018-08-24T02:17:20.584Z,95444.05
2018-08-24T02:19:55.096Z,95444.17
2018-08-24T02:22:24.492Z,95435.48
2018-08-24T02:24:55.816Z,95428.59
2018-08-24T02:27:25.188Z,95431.55
2018-08-24T02:29:58.996Z,95424.64
2018-08-24T02:32:28.543Z,95417.27
2018-08-24T02:35:00.130Z,95418.77
2018-08-24T02:37:30.984Z,95410.84
2018-08-24T02:40:00.371Z,95409.17
2018-08-24T02:42:29.802Z,95404.75
2018-08-24T02:44:59.709Z,95407.39
2018-08-24T02:47:29.117Z,95401.84
2018-08-24T02:49:58.581Z,95405.69
2018-08-24T02:52:27.970Z,95398.89
2018-08-24T02:54:57.762Z,95403.45
2018-08-24T02:57:27.179Z,95405.27
2018-08-24T02:59:57.052Z,95400.05
2018-08-24T03:02:26.508Z,95399.40
2018-08-24T03:04:55.959Z,95410.16
2018-08-24T03:07:26.787Z,95396.47
2018-08-24T03:09:56.569Z,95403.27
2018-08-24T03:12:25.999Z,95401.91
2018-08-24T03:14:55.397Z,95403.74
2018-08-24T03:17:30.219Z,95394.91
2018-08-24T03:20:01.299Z,95395.02
2018-08-24T03:22:30.741Z,95383.45
2018-08-24T03:25:00.095Z,95378.16
2018-08-24T03:27:29.864Z,95380.39
2018-08-24T03:29:59.272Z,95381.41
2018-08-24T03:32:28.715Z,95382.98
2018-08-24T03:34:58.113Z,95384.02
2018-08-24T03:37:27.673Z,95377.78
2018-08-24T03:39:59.011Z,95377.33
2018-08-24T03:42:28.606Z,95374.05
2018-08-24T03:44:58.002Z,95372.34
2018-08-24T03:47:27.876Z,95373.59
2018-08-24T03:49:57.307Z,95378.80
2018-08-24T03:52:26.682Z,95397.98
2018-08-24T03:54:56.066Z,95408.52
2018-08-24T03:57:25.970Z,95414.61
2018-08-24T03:59:55.387Z,95435.00
2018-08-24T04:02:24.741Z,95449.16
2018-08-24T04:04:54.420Z,95463.31
2018-08-24T04:07:23.934Z,95462.17
2018-08-24T04:09:53.331Z,95469.59
2018-08-24T04:12:22.743Z,95466.39
2018-08-24T04:14:53.941Z,95462.97
2018-08-24T04:17:29.883Z,95460.32
2018-08-24T04:20:00.179Z,95453.48
2018-08-24T04:22:30.773Z,95444.44
2018-08-24T04:25:03.697Z,95433.12
2018-08-24T04:27:33.048Z,95445.07
2018-08-24T04:30:02.436Z,95443.64
2018-08-24T04:32:35.938Z,95441.67
2018-08-24T04:35:06.336Z,95442.13
2018-08-24T04:37:39.980Z,95438.76
2018-08-24T04:40:09.861Z,95441.23
2018-08-24T04:42:41.603Z,95440.11
2018-08-24T04:45:11.023Z,95436.25
2018-08-24T04:47:40.398Z,95439.88
2018-08-24T04:50:10.061Z,95432.40
2018-08-24T04:52:42.387Z,95434.41
2018-08-24T04:55:12.262Z,95429.66
2018-08-24T04:57:41.651Z,95443.78
2018-08-24T05:00:11.387Z,95444.25
2018-08-24T05:02:41.429Z,95447.23
2018-08-24T05:05:12.436Z,95454.23
2018-08-24T05:07:41.790Z,95454.73
2018-08-24T05:10:11.195Z,95455.70
2018-08-24T05:12:40.601Z,95451.41
2018-08-24T05:15:09.974Z,95457.30
2018-08-24T05:17:41.239Z,95457.95
2018-08-24T05:20:10.566Z,95447.34
2018-08-24T05:22:39.971Z,95444.98
2018-08-24T05:25:09.363Z,95448.14
2018-08-24T05:27:40.050Z,95453.23
2018-08-24T05:30:09.926Z,95452.53
2018-08-24T05:32:39.819Z,95452.77
2018-08-24T05:35:09.224Z,95458.98
2018-08-24T05:37:41.307Z,95462.40
2018-08-24T05:40:10.681Z,95463.91
2018-08-24T05:42:40.179Z,95459.80
2018-08-24T05:45:09.854Z,95462.31
2018-08-24T05:47:39.255Z,95465.58
2018-08-24T05:50:08.665Z,95470.67
2018-08-24T05:52:39.634Z,95466.75
2018-08-24T05:55:09.050Z,95469.23
2018-08-24T05:57:38.972Z,95468.28
2018-08-24T06:00:09.265Z,95473.17
2018-08-24T06:02:38.647Z,95477.49
2018-08-24T06:05:08.034Z,95474.94
2018-08-24T06:07:37.844Z,95474.77
2018-08-24T06:10:07.246Z,95475.39
2018-08-24T06:12:37.238Z,95462.67
2018-08-24T06:15:06.622Z,95462.29
2018-08-24T06:17:40.869Z,95464.91
2018-08-24T06:20:10.476Z,95470.01
2018-08-24T06:22:40.229Z,95473.05
2018-08-24T06:25:10.277Z,95465.25
2018-08-24T06:27:39.712Z,95456.20
2018-08-24T06:30:10.590Z,95455.91
2018-08-24T06:32:40.659Z,95452.06
2018-08-24T06:35:11.310Z,95454.10
2018-08-24T06:37:40.696Z,95466.91
2018-08-24T06:40:10.081Z,95462.94
2018-08-24T06:42:39.810Z,95465.66
2018-08-24T06:45:09.158Z,95470.89
2018-08-24T06:47:38.612Z,95474.43
2018-08-24T06:50:08.303Z,95483.33
2018-08-24T06:52:38.713Z,95485.72
2018-08-24T06:55:08.141Z,95493.52
2018-08-24T06:57:38.176Z,95500.66
2018-08-24T07:00:08.940Z,95501.32
2018-08-24T07:02:39.348Z,95492.04
2018-08-24T07:05:09.105Z,95491.34
2018-08-24T07:07:40.073Z,95489.89
2018-08-24T07:10:13.257Z,95493.27
2018-08-24T07:12:42.657Z,95497.70
2018-08-24T07:15:12.438Z,95498.50
2018-08-24T07:17:46.799Z,95493.08
2018-08-24T07:20:19.286Z,95497.15
2018-08-24T07:22:49.360Z,95494.70
2018-08-24T07:25:23.506Z,95496.40
2018-08-24T07:27:52.866Z,95489.75
2018-08-24T07:30:23.860Z,95492.11
2018-08-24T07:32:54.258Z,95486.38
2018-08-24T07:35:24.203Z,95485.50
2018-08-24T07:37:53.607Z,95481.87
2018-08-24T07:40:23.453Z,95485.98
2018-08-24T07:42:53.210Z,95489.87
2018-08-24T07:45:23.284Z,95485.73
2018-08-24T07:48:00.311Z,95481.02
2018-08-24T07:50:31.213Z,95487.78
2018-08-24T07:53:02.437Z,95483.79
2018-08-24T07:55:32.268Z,95488.97
2018-08-24T07:58:01.660Z,95486.31
2018-08-24T08:00:31.252Z,95487.33
2018-08-24T08:03:01.946Z,95494.81
2018-08-24T08:05:31.603Z,95488.57
2018-08-24T08:08:01.761Z,95495.50
2018-08-24T08:10:41.374Z,95491.24
2018-08-24T08:14:19.289Z,95503.73
2018-08-24T08:16:53.398Z,95500.81
2018-08-24T08:19:25.474Z,95500.36
2018-08-24T08:22:00.591Z,95499.27
2018-08-24T08:24:32.315Z,95499.87
2018-08-24T08:27:03.816Z,95500.52
2018-08-24T08:29:38.407Z,95495.97
2018-08-24T08:32:07.855Z,95501.57
2018-08-24T08:34:41.314Z,95493.12
2018-08-24T08:37:10.643Z,95491.59
2018-08-24T08:39:40.015Z,95491.73
2018-08-24T08:42:09.914Z,95489.73
2018-08-24T08:44:40.128Z,95487.52
2018-08-24T08:47:09.590Z,95486.20
2018-08-24T08:49:39.165Z,95491.75
2018-08-24T08:52:09.279Z,95492.38
2018-08-24T08:54:38.662Z,95498.60
2018-08-24T08:57:08.350Z,95504.11
2018-08-24T08:59:37.726Z,95500.63
2018-08-24T09:02:11.278Z,95505.73
2018-08-24T09:04:42.327Z,95513.91
2018-08-24T09:07:11.939Z,95505.66
2018-08-24T09:09:41.434Z,95509.23
2018-08-24T09:12:12.993Z,95511.94
2018-08-24T09:14:42.800Z,95515.62
2018-08-24T09:17:17.195Z,95515.11
2018-08-24T09:19:51.651Z,95516.47
2018-08-24T09:22:26.124Z,95514.91
2018-08-24T09:25:00.801Z,95520.58
2018-08-24T09:27:39.867Z,95516.42
2018-08-24T09:30:11.890Z,95516.27
2018-08-24T09:32:43.883Z,95507.62
2018-08-24T09:35:13.711Z,95514.27
2018-08-24T09:37:43.054Z,95512.44
2018-08-24T09:40:12.879Z,95513.52
2018-08-24T09:42:43.338Z,95512.48
2018-08-24T09:45:13.205Z,95519.30
2018-08-24T09:47:48.034Z,95511.86
2018-08-24T09:50:23.429Z,95517.39
2018-08-24T09:53:01.147Z,95513.05
2018-08-24T09:55:34.588Z,95512.63
2018-08-24T09:58:04.287Z,95513.63
2018-08-24T10:00:39.440Z,95510.80
2018-08-24T10:03:17.589Z,95514.79
2018-08-24T10:06:03.954Z,95515.52
2018-08-24T10:08:51.444Z,95511.10
2018-08-24T10:11:22.085Z,95512.47
2018-08-24T10:13:52.619Z,95509.52
2018-08-24T10:16:22.320Z,95514.56
2018-08-24T10:18:51.898Z,95511.23
2018-08-24T10:21:21.306Z,95513.84
2018-08-24T10:23:50.739Z,95510.95
2018-08-24T10:26:21.407Z,95509.55
2018-08-24T10:28:51.216Z,95507.52
2018-08-24T10:31:22.946Z,95512.92
2018-08-24T10:33:52.663Z,95516.79
2018-08-24T10:36:23.460Z,95509.97
2018-08-24T10:38:53.654Z,95511.19
2018-08-24T10:41:24.484Z,95511.75
2018-08-24T10:43:53.826Z,95504.84
2018-08-24T10:46:25.372Z,95504.94
2018-08-24T10:48:58.291Z,95502.48
2018-08-24T10:51:29.268Z,95496.40
2018-08-24T10:53:58.613Z,95500.10
2018-08-24T10:56:28.594Z,95493.80
2018-08-24T10:58:59.842Z,95489.63
2018-08-24T11:01:29.214Z,95480.39
2018-08-24T11:03:58.547Z,95478.32
2018-08-24T11:06:29.190Z,95490.90
2018-08-24T11:08:58.567Z,95479.25
2018-08-24T11:11:29.113Z,95471.91
2018-08-24T11:13:58.487Z,95477.38
2018-08-24T11:16:28.831Z,95480.51
2018-08-24T11:18:58.231Z,95481.84
2018-08-24T11:21:28.307Z,95487.05
2018-08-24T11:23:58.277Z,95474.77
2018-08-24T11:26:27.994Z,95479.25
2018-08-24T11:28:57.388Z,95483.26
2018-08-24T11:31:27.922Z,95486.20
2018-08-24T11:33:57.383Z,95488.49
2018-08-24T11:36:27.563Z,95479.70
2018-08-24T11:39:30.899Z,95486.66
2018-08-24T11:42:00.338Z,95479.77
2018-08-24T11:44:31.060Z,95472.28
2018-08-24T11:47:05.233Z,95477.45
2018-08-24T11:49:34.606Z,95472.22
2018-08-24T11:52:05.039Z,95466.27
2018-08-24T11:54:37.927Z,95472.67
2018-08-24T11:57:09.794Z,95466.92
2018-08-24T11:59:40.137Z,95465.05
2018-08-24T12:02:11.759Z,95463.55
2018-08-24T12:04:41.815Z,95465.14
2018-08-24T12:07:11.968Z,95467.72
2018-08-24T12:09:41.318Z,95470.22
2018-08-24T12:12:10.763Z,95464.41
2018-08-24T12:14:40.549Z,95455.50
2018-08-24T12:17:11.926Z,95461.25
2018-08-24T12:19:41.344Z,95462.19
2018-08-24T12:22:11.519Z,95464.84
2018-08-24T12:24:41.242Z,95454.33
2018-08-24T12:27:10.714Z,95449.23
2018-08-24T12:29:41.498Z,95451.61
2018-08-24T12:32:11.569Z,95452.58
2018-08-24T12:34:44.723Z,95450.48
2018-08-24T12:37:14.559Z,95445.38
2018-08-24T12:39:44.221Z,95442.03
2018-08-24T12:42:13.994Z,95437.80
2018-08-24T12:44:43.942Z,95441.91
2018-08-24T12:47:15.829Z,95437.86
2018-08-24T12:49:48.433Z,95442.42
2018-08-24T12:52:19.232Z,95439.51
2018-08-24T12:54:49.740Z,95442.42
2018-08-24T12:57:21.346Z,95437.65
2018-08-24T12:59:52.835Z,95438.44
2018-08-24T13:02:26.071Z,95444.64
2018-08-24T13:04:55.544Z,95441.48
2018-08-24T13:07:25.666Z,95440.88
2018-08-24T13:09:57.906Z,95446.67
2018-08-24T13:12:27.297Z,95457.22
2018-08-24T13:14:58.053Z,95462.08
2018-08-24T13:17:27.691Z,95455.20
2018-08-24T13:19:57.062Z,95467.27
2018-08-24T13:22:26.474Z,95473.88
2018-08-24T13:24:55.918Z,95466.92
2018-08-24T13:27:27.426Z,95466.42
2018-08-24T13:29:57.786Z,95467.99
2018-08-24T13:32:27.119Z,95470.37
2018-08-24T13:34:56.558Z,95471.59
2018-08-24T13:37:27.319Z,95469.70
2018-08-24T13:39:58.610Z,95479.78
2018-08-24T13:42:29.585Z,95476.68
2018-08-24T13:45:02.447Z,95481.02
2018-08-24T13:47:34.602Z,95479.61
2018-08-24T13:50:05.057Z,95479.03
2018-08-24T13:52:34.496Z,95477.17
2018-08-24T13:55:09.028Z,95480.17
2018-08-24T13:57:38.423Z,95483.00
2018-08-24T14:00:08.436Z,95486.64
2018-08-24T14:02:37.839Z,95488.59
2018-08-24T14:05:10.693Z,95506.30
2018-08-24T14:07:40.108Z,95500.89
2018-08-24T14:10:18.370Z,95503.22
2018-08-24T14:12:52.810Z,95509.44
2018-08-24T14:15:23.403Z,95511.67
2018-08-24T14:20:39.459Z,95514.89
2018-08-24T14:23:10.555Z,95515.76
2018-08-24T14:25:42.397Z,95517.41
2018-08-24T14:28:12.898Z,95515.72
2018-08-24T14:31:09.340Z,95523.22
2018-08-24T14:34:02.955Z,95527.20
2018-08-24T14:36:32.859Z,95525.64
2018-08-24T14:39:03.042Z,95534.34
2018-08-24T14:41:33.018Z,95533.09
2018-08-24T14:44:04.274Z,95532.48
2018-08-24T14:46:34.146Z,95539.28
2018-08-24T14:49:05.107Z,95543.56
2018-08-24T14:51:34.492Z,95541.17
2018-08-24T14:54:08.149Z,95541.60
2018-08-24T14:56:38.598Z,95543.39
2018-08-24T14:59:11.212Z,95552.66
2018-08-24T15:01:40.572Z,95558.88
2018-08-24T15:04:11.993Z,95560.11
2018-08-24T15:06:44.230Z,95561.47
2018-08-24T15:09:17.269Z,95572.14
2018-08-24T15:11:46.914Z,95573.41
2018-08-24T15:14:16.406Z,95584.14
2018-08-24T15:16:46.471Z,95580.14
2018-08-24T15:19:15.862Z,95585.99
2018-08-24T15:21:45.247Z,95584.35
2018-08-24T15:24:14.774Z,95587.39
2018-08-24T15:26:45.002Z,95592.30
2018-08-24T15:29:14.718Z,95593.39
2018-08-24T15:31:54.635Z,95595.31
2018-08-24T15:34:27.143Z,95594.20
2018-08-24T15:36:57.247Z,95591.14
2018-08-24T15:39:26.614Z,95576.34
2018-08-24T15:41:56.668Z,95575.89
2018-08-24T15:44:28.297Z,95567.98
2018-08-24T15:46:57.648Z,95561.05
2018-08-24T15:49:26.999Z,95564.36
2018-08-24T15:51:56.383Z,95560.15
2018-08-24T15:54:26.871Z,95561.98
2018-08-24T15:56:56.411Z,95556.10
2018-08-24T15:59:27.521Z,95551.29
2018-08-24T16:01:58.323Z,95552.10
2018-08-24T16:04:28.668Z,95549.63
2018-08-24T16:06:58.033Z,95534.60
2018-08-24T16:09:29.079Z,95535.67
2018-08-24T16:11:59.372Z,95533.36
2018-08-24T16:14:29.014Z,95532.97
2018-08-24T16:16:58.395Z,95527.64
2018-08-24T16:19:28.446Z,95529.23
2018-08-24T16:21:58.703Z,95528.44
2018-08-24T16:24:28.135Z,95529.00
2018-08-24T16:26:59.550Z,95531.05
2018-08-24T16:29:30.091Z,95525.89
2018-08-24T16:32:00.202Z,95533.20
2018-08-24T16:34:29.799Z,95536.38
2018-08-24T16:37:02.196Z,95535.58
2018-08-24T16:39:31.602Z,95537.42
2018-08-24T16:42:03.387Z,95541.37
2018-08-24T16:44:33.215Z,95543.75
2018-08-24T16:47:02.618Z,95546.94
2018-08-24T16:49:34.441Z,95540.94
2018-08-24T16:52:05.076Z,95548.63
2018-08-24T16:54:35.602Z,95543.41
2018-08-24T16:57:06.189Z,95547.47
2018-08-24T16:59:35.562Z,95549.60
2018-08-24T17:02:38.634Z,95539.58
2018-08-24T17:05:08.386Z,95539.02
2018-08-24T17:07:38.236Z,95542.66
2018-08-24T17:10:12.275Z,95542.19
2018-08-24T17:12:42.621Z,95541.57
2018-08-24T17:15:19.228Z,95535.80
2018-08-24T17:17:49.710Z,95544.33
2018-08-24T17:20:20.906Z,95546.42
2018-08-24T17:22:53.227Z,95549.02
2018-08-24T17:25:22.642Z,95553.81
2018-08-24T17:27:51.989Z,95558.65
2018-08-24T17:30:22.253Z,95559.53
2018-08-24T17:32:57.212Z,95555.19
2018-08-24T17:35:27.619Z,95559.72
2018-08-24T17:37:59.821Z,95558.84
2018-08-24T17:40:30.150Z,95559.13
2018-08-24T17:42:59.520Z,95554.55
2018-08-24T17:45:29.269Z,95556.14
2018-08-24T17:47:58.683Z,95566.22
2018-08-24T17:50:28.077Z,95571.83
2018-08-24T17:53:01.248Z,95571.19
2018-08-24T17:55:30.694Z,95577.42
2018-08-24T17:58:00.786Z,95578.17
2018-08-24T18:00:33.392Z,95575.72
2018-08-24T18:03:04.234Z,95578.34
2018-08-24T18:05:34.332Z,95588.39
2018-08-24T18:08:04.233Z,95580.56
2018-08-24T18:10:36.309Z,95580.50
2018-08-24T18:13:06.644Z,95584.25
2018-08-24T18:15:47.957Z,95585.51
2018-08-24T18:18:33.691Z,95591.64
2018-08-24T18:21:04.622Z,95591.16
2018-08-24T18:23:34.138Z,95589.08
2018-08-24T18:26:05.751Z,95594.35
2018-08-24T18:28:35.919Z,95593.69
2018-08-24T18:31:06.731Z,95593.62
2018-08-24T18:33:37.708Z,95602.77
2018-08-24T18:36:07.311Z,95603.39
2018-08-24T18:38:39.137Z,95601.95
2018-08-24T18:41:09.058Z,95608.11
2018-08-24T18:43:41.381Z,95611.53
2018-08-24T18:46:11.278Z,95606.50
2018-08-24T18:48:42.178Z,95601.25
2018-08-24T18:51:11.574Z,95599.48
2018-08-24T18:53:45.219Z,95622.85
2018-08-24T18:56:14.688Z,95616.77
2018-08-24T18:58:44.357Z,95616.34
2018-08-24T19:01:15.363Z,95613.22
2018-08-24T19:03:45.714Z,95614.11
2018-08-24T19:06:17.118Z,95617.54
2018-08-24T19:08:50.677Z,95614.69
2018-08-24T19:11:29.516Z,95616.89
2018-08-24T19:14:00.502Z,95617.75
2018-08-24T19:16:30.541Z,95625.14
2018-08-24T19:19:06.001Z,95633.61
2018-08-24T19:21:43.281Z,95633.42
2018-08-24T19:24:13.518Z,95634.92
2018-08-24T19:26:45.672Z,95635.22
2018-08-24T19:29:22.174Z,95637.19
2018-08-24T19:31:52.691Z,95637.98
2018-08-24T19:34:22.057Z,95634.18
2018-08-24T19:36:52.473Z,95637.19
2018-08-24T19:39:26.359Z,95638.23
2018-08-24T19:42:02.532Z,95637.38
2018-08-24T19:44:33.849Z,95631.97
2018-08-24T19:47:04.395Z,95633.57
2018-08-24T19:49:39.009Z,95633.93
2018-08-24T19:52:08.846Z,95632.53
2018-08-24T19:54:39.165Z,95621.63
2018-08-24T19:57:13.614Z,95627.23
2018-08-24T19:59:44.058Z,95618.88
2018-08-24T20:02:13.872Z,95620.14
2018-08-24T20:04:44.955Z,95615.80
2018-08-24T20:07:19.421Z,95619.84
2018-08-24T20:09:56.372Z,95627.28
2018-08-24T20:12:26.317Z,95641.63
2018-08-24T20:15:00.751Z,95637.28
2018-08-24T20:17:32.249Z,95640.78
2018-08-24T20:20:02.974Z,95636.18
2018-08-24T20:22:34.654Z,95633.34
2018-08-24T20:25:07.786Z,95629.78
2018-08-24T20:27:40.946Z,95627.53
2018-08-24T20:30:13.323Z,95639.28
2018-08-24T20:32:43.802Z,95633.28
2018-08-24T20:35:13.467Z,95624.48
2018-08-24T20:37:42.836Z,95626.02
2018-08-24T20:40:13.381Z,95632.47
2018-08-24T20:42:45.069Z,95631.48
2018-08-24T20:45:16.081Z,95639.97
2018-08-24T20:47:45.428Z,95633.33
2018-08-24T20:50:15.153Z,95611.48
2018-08-24T20:52:46.010Z,95600.05
2018-08-24T20:55:15.427Z,95593.44
2018-08-24T20:57:46.413Z,95613.05
2018-08-24T21:00:17.503Z,95630.53
2018-08-24T21:02:49.807Z,95646.17
2018-08-24T21:05:20.086Z,95655.81
2018-08-24T21:07:50.916Z,95663.17
2018-08-24T21:10:21.953Z,95671.19
2018-08-24T21:12:51.324Z,95666.92
2018-08-24T21:15:21.548Z,95664.44
2018-08-24T21:17:50.890Z,95673.28
2018-08-24T21:20:20.246Z,95681.63
2018-08-24T21:22:49.628Z,95677.22
2018-08-24T21:25:20.278Z,95685.13
2018-08-24T21:27:49.992Z,95698.02
2018-08-24T21:30:20.488Z,95706.41
2018-08-24T21:32:50.437Z,95680.11
2018-08-24T21:35:21.236Z,95652.37
2018-08-24T21:37:51.779Z,95615.69
2018-08-24T21:40:22.034Z,95612.02
2018-08-24T21:42:55.750Z,95612.73
2018-08-24T21:45:27.280Z,95640.87
2018-08-24T21:47:57.863Z,95670.30
2018-08-24T21:50:28.769Z,95679.06
2018-08-24T21:52:58.609Z,95683.02
2018-08-24T21:55:29.332Z,95672.71
2018-08-24T21:57:58.723Z,95669.17
2018-08-24T22:00:28.154Z,95657.64
2018-08-24T22:02:58.846Z,95672.88
2018-08-24T22:05:28.231Z,95681.67
2018-08-24T22:07:58.616Z,95677.55
2018-08-24T22:10:28.904Z,95683.49
2018-08-24T22:12:58.481Z,95682.39
2018-08-24T22:15:29.493Z,95677.55
2018-08-24T22:18:00.599Z,95678.90
2018-08-24T22:20:30.439Z,95677.67
2018-08-24T22:22:59.808Z,95674.17
2018-08-24T22:25:29.194Z,95666.59
2018-08-24T22:27:58.986Z,95676.28
2018-08-24T22:30:28.521Z,95676.58
2018-08-24T22:32:59.325Z,95675.95
2018-08-24T22:35:28.674Z,95677.00
2018-08-24T22:37:58.703Z,95679.74
2018-08-24T22:40:28.210Z,95686.55
2018-08-24T22:42:59.950Z,95686.64
2018-08-24T22:45:29.436Z,95682.01
2018-08-24T22:47:59.174Z,95675.82
2018-08-24T22:50:29.126Z,95669.97
2018-08-24T22:52:58.491Z,95663.69
2018-08-24T22:55:27.891Z,95669.08
2018-08-24T22:57:58.581Z,95669.97
2018-08-24T23:00:29.940Z,95679.17
2018-08-24T23:03:01.350Z,95677.88
2018-08-24T23:05:32.047Z,95679.92
2018-08-24T23:08:01.973Z,95671.44
2018-08-24T23:10:31.401Z,95668.89
2018-08-24T23:13:00.773Z,95668.50
2018-08-24T23:15:32.434Z,95668.14
2018-08-24T23:18:02.242Z,95665.58
2018-08-24T23:20:31.689Z,95663.64
2018-08-24T23:23:02.741Z,95670.75
2018-08-24T23:25:32.371Z,95669.63
2018-08-24T23:28:03.345Z,95664.30
2018-08-24T23:30:32.831Z,95664.56
2018-08-24T23:33:02.465Z,95664.19
2018-08-24T23:35:33.434Z,95666.88
2018-08-24T23:38:05.063Z,95659.42
2018-08-24T23:40:34.447Z,95649.14
2018-08-24T23:43:04.481Z,95645.69
2018-08-24T23:45:33.857Z,95649.44
2018-08-24T23:48:03.495Z,95641.10
2018-08-24T23:50:32.896Z,95641.06
2018-08-24T23:53:05.969Z,95640.52
2018-08-24T23:55:35.908Z,95639.64
2018-08-24T23:58:05.323Z,95639.42
